Terminal Aerodrome Forecast
Issued by NWS

Home | Current Version | Previous Version | Text Only | Print | Product List | Glossary On
Versions: 1 2 3 4 5 6 7 8 9 10 11 12
000
FTUS44 KBMX 021746
TAFEET
TAF
KEET 021746Z 0218/0318 35007KT P6SM FEW050 SCT250
     FM030100 00000KT P6SM SCT250
     FM031500 34003KT P6SM SKC=

USA.gov is the U.S. government's official web portal to all federal, state and local government web resources and services.